aviador You're here:

KLAF Decoded Metar

LAFAYETTE in IN, USA
Report Time2018-02-25 14:54:00
UTC Time2018-02-25 15:37:41
Flight Rules mvfr MVFR
Wind250° at 14 Gusting to 19 kt
W.Decomp.*RWY 23: 13.1 kt HW 5.0 kt RCW
RWY 28: 12.2 kt HW 6.8 kt LCW
W.Rank250° ranks 9
Current wind is above 250° avg. (7.0)
Visibility9999 m
Phenomena:N/A
Clouds:Overcast 027 Hf
Expected CloudBase > 1,600 ft AGL from Temp-Dew spread
Ceiling2,700 ft
Temp02°C (ISA -12)
Dew Point-2°C (75% RH)
AAT-5.3°C
QNH1015 hPa
Density Alt-833 ft
Elevation597 ft
Report Wrong Elevation
Raw Report
KLAF 251454Z 25014G19KT 10SM OVC027 02/M02 A2998 RMK AO2 SLP154
T00221017 53030=

Extra information for KLAF:More info

Metar Taf Metar & Taf Last 4 Metars F.Rules Stats Wind Profile Meteogram Temp Stats Airport Information Weather charts Add Link Nearby VenuesMetar ALERT Operation Metar Decoded Social comments

AIRNAV info for KLAF